This is the latest recevied weather packets stored in our database for station/object WC4PEM-1. If no packets are shown the sender has not sent any weather packets the latest 10 day(s).
| Time | Temp. | Humidity | Pressure | Rain* | Wind** | Luminosity | Snow |
|---|---|---|---|---|---|---|---|
| 1777989804 | 25° C | 66% | 1014.9 hPa | 0 mm | - | 476 W/m² | - |
| 1777989504 | 25° C | 67% | 1015.1 hPa | 0 mm | - | 287 W/m² | - |
| 1777989358 | 25° C | 67% | 1015.2 hPa | 0 mm | - | 258 W/m² | - |
| 1777989204 | 25° C | 67% | 1015.2 hPa | 0 mm | - | 258 W/m² | - |
| 1777988905 | 24.44° C | 67% | 1015.2 hPa | 0 mm | - | 216 W/m² | - |
| 1777988604 | 24.44° C | 67% | 1015.2 hPa | 0 mm | - | 255 W/m² | - |
| 1777988304 | 24.44° C | 68% | 1015.2 hPa | 0 mm | - | 232 W/m² | - |
| 1777988004 | 24.44° C | 68% | 1015.1 hPa | 0 mm | - | 264 W/m² | - |
| 1777987704 | 24.44° C | 68% | 1015 hPa | 0 mm | - | 121 W/m² | - |
| 1777987587 | 24.44° C | 67% | 1015 hPa | 0 mm | - | 95 W/m² | - |
| 1777987404 | 24.44° C | 67% | 1015 hPa | 0 mm | - | 95 W/m² | - |
| 1777987104 | 24.44° C | 68% | 1015 hPa | 0 mm | - | 84 W/m² | - |
| 1777986804 | 24.44° C | 70% | 1015 hPa | 0 mm | - | 84 W/m² | - |
| 1777986504 | 23.89° C | 69% | 1015 hPa | 0 mm | - | 97 W/m² | - |
| 1777986204 | 23.89° C | 70% | 1015.1 hPa | 0 mm | - | 93 W/m² | - |
| 1777985904 | 23.89° C | 71% | 1015 hPa | 0 mm | - | 88 W/m² | - |
| 1777985604 | 23.33° C | 71% | 1014.9 hPa | 0 mm | - | 95 W/m² | - |
| 1777985304 | 23.33° C | 73% | 1015 hPa | 0 mm | - | 121 W/m² | - |
| 1777985004 | 22.78° C | 74% | 1015 hPa | 0 mm | - | 167 W/m² | - |
| 1777984704 | 22.78° C | 74% | 1015.1 hPa | 0 mm | - | 165 W/m² | - |
| 1777984416 | 22.22° C | 75% | 1015.1 hPa | 0 mm | - | 274 W/m² | - |
| 1777984404 | 22.78° C | 75% | 1015.1 hPa | 0 mm | - | 95 W/m² | - |
| 1777984104 | 22.22° C | 75% | 1015.1 hPa | 0 mm | - | 274 W/m² | - |
| 1777983804 | 22.22° C | 76% | 1015.2 hPa | 0 mm | - | 123 W/m² | - |
| 1777983504 | 21.67° C | 77% | 1015.2 hPa | 0 mm | - | 125 W/m² | - |
* Rain latest hour (hover to see other rain measurements)
** Current wind speed in m/s (hover to see current wind gust speed)